Terminal Aerodrome Forecast
Issued by NWS Northern Indiana

Home | Current Version | Previous Version | Graphics & Text | Print | Product List | Glossary On
Versions: 1 2 3 4 5 6 7 8 9 10 11 12 13 14 15 16
000
FTUS43 KIWX 152340
TAFFWA
TAF
KFWA 152340Z 1600/1624 27006KT 6SM -RA BR OVC012
     FM160100 28006KT 4SM -RA BR OVC008
      TEMPO 1602/1605 3SM -RA BR OVC005
     FM160500 33008KT P6SM OVC020
     FM161500 33011G17KT P6SM BKN040
     FM162200 32010KT P6SM SCT045=

USA.gov is the U.S. government's official web portal to all federal, state and local government web resources and services.